createdAt,value
2023-01-31T00:01:38.623Z,99487.69
2023-01-31T00:04:40.217Z,99495.16
2023-01-31T00:07:41.661Z,99509.13
2023-01-31T00:10:43.248Z,99517.34
2023-01-31T00:13:44.903Z,99508.13
2023-01-31T00:16:46.732Z,99505.75
2023-01-31T00:19:48.228Z,99503.44
2023-01-31T00:22:49.698Z,99499.47
2023-01-31T00:25:51.263Z,99491.59
2023-01-31T00:28:54.236Z,99501.69
2023-01-31T00:31:55.910Z,99494.31
2023-01-31T00:34:57.455Z,99491.38
2023-01-31T00:38:00.186Z,99489.38
2023-01-31T00:41:01.621Z,99481.72
2023-01-31T00:44:03.175Z,99480.41
2023-01-31T00:47:04.659Z,99475.47
2023-01-31T00:50:06.264Z,99479.56
2023-01-31T00:53:08.176Z,99480.53
2023-01-31T00:56:11.985Z,99469.78
2023-01-31T00:59:13.526Z,99483.66
2023-01-31T01:02:15.141Z,99484.66
2023-01-31T01:05:16.695Z,99492.34
2023-01-31T01:08:18.173Z,99482.09
2023-01-31T01:11:21.955Z,99474.28
2023-01-31T01:14:23.462Z,99478.47
2023-01-31T01:17:25.000Z,99469.53
2023-01-31T01:20:26.442Z,99461.59
2023-01-31T01:23:29.938Z,99450.59
2023-01-31T01:26:32.791Z,99447.78
2023-01-31T01:29:35.007Z,99440.16
2023-01-31T01:32:36.476Z,99459.13
2023-01-31T01:35:37.935Z,99465.19
2023-01-31T01:38:40.451Z,99458.91
2023-01-31T01:41:41.973Z,99457.13
2023-01-31T01:44:54.201Z,99462.28
2023-01-31T01:47:58.057Z,99458.19
2023-01-31T01:50:59.516Z,99461.91
2023-01-31T01:54:03.576Z,99456.97
2023-01-31T01:57:05.494Z,99449.56
2023-01-31T02:00:15.661Z,99448.81
2023-01-31T02:03:17.169Z,99440.25
2023-01-31T02:06:18.713Z,99441.47
2023-01-31T02:09:29.155Z,99440.34
2023-01-31T02:12:30.870Z,99446.69
2023-01-31T02:15:32.356Z,99447.69
2023-01-31T02:18:34.056Z,99456.38
2023-01-31T02:21:47.826Z,99464.09
2023-01-31T02:25:23.875Z,99459.97
2023-01-31T02:28:53.215Z,99468.75
2023-01-31T02:32:14.986Z,99471.72
2023-01-31T02:35:31.791Z,99477.44
2023-01-31T02:39:20.322Z,99478.88
2023-01-31T02:42:47.942Z,99476.34
2023-01-31T02:45:57.286Z,99473.38
2023-01-31T02:49:04.602Z,99467.41
2023-01-31T02:52:16.186Z,99466.59
2023-01-31T02:56:07.855Z,99458.72
2023-01-31T02:59:22.002Z,99449.59
2023-01-31T03:02:23.594Z,99446.59
2023-01-31T03:05:25.912Z,99436.00
2023-01-31T03:08:27.566Z,99434.72
2023-01-31T03:12:14.448Z,99432.94
2023-01-31T03:15:57.265Z,99421.88
2023-01-31T03:19:16.727Z,99416.66
2023-01-31T03:22:24.030Z,99416.00
2023-01-31T03:25:27.380Z,99415.75
2023-01-31T03:28:31.267Z,99421.13
2023-01-31T03:31:36.577Z,99420.84
2023-01-31T03:34:38.056Z,99419.34
2023-01-31T03:38:11.859Z,99428.91
2023-01-31T03:41:27.163Z,99422.84
2023-01-31T03:44:34.801Z,99424.63
2023-01-31T03:47:41.167Z,99425.00
2023-01-31T03:50:53.404Z,99425.91
2023-01-31T03:54:04.387Z,99429.84
2023-01-31T03:57:21.268Z,99433.47
2023-01-31T04:00:23.055Z,99432.63
2023-01-31T04:03:28.716Z,99434.00
2023-01-31T04:06:30.205Z,99436.91
2023-01-31T04:09:32.110Z,99432.72
2023-01-31T04:12:37.332Z,99442.31
2023-01-31T04:15:38.826Z,99453.56
2023-01-31T04:18:40.380Z,99456.56
2023-01-31T04:21:41.903Z,99454.34
2023-01-31T04:24:43.407Z,99442.63
2023-01-31T04:27:44.914Z,99448.16
2023-01-31T04:30:46.360Z,99432.78
2023-01-31T04:33:47.944Z,99433.41
2023-01-31T04:36:49.415Z,99417.50
2023-01-31T04:39:50.898Z,99419.94
2023-01-31T04:42:52.345Z,99411.59
2023-01-31T04:45:53.829Z,99420.06
2023-01-31T04:48:55.369Z,99423.22
2023-01-31T04:51:56.805Z,99439.13
2023-01-31T04:54:58.285Z,99446.25
2023-01-31T04:57:59.746Z,99445.34
2023-01-31T05:01:01.482Z,99453.38
2023-01-31T05:04:02.967Z,99448.03
2023-01-31T05:07:04.409Z,99440.09
2023-01-31T05:10:06.749Z,99439.78
2023-01-31T05:13:08.313Z,99434.06
2023-01-31T05:16:11.071Z,99446.38
2023-01-31T05:19:15.562Z,99440.78
2023-01-31T05:22:17.736Z,99438.78
2023-01-31T05:25:19.414Z,99445.88
2023-01-31T05:28:21.032Z,99444.13
2023-01-31T05:31:22.832Z,99442.88
2023-01-31T05:34:25.456Z,99430.16
2023-01-31T05:37:26.899Z,99442.72
2023-01-31T05:40:28.381Z,99441.47
2023-01-31T05:43:29.821Z,99452.34
2023-01-31T05:46:31.304Z,99464.84
2023-01-31T05:49:33.519Z,99471.97
2023-01-31T05:52:35.244Z,99468.19
2023-01-31T05:55:36.703Z,99461.44
2023-01-31T05:58:38.180Z,99471.22
2023-01-31T06:01:39.763Z,99472.63
2023-01-31T06:04:41.248Z,99463.09
2023-01-31T06:07:42.696Z,99460.03
2023-01-31T06:10:44.140Z,99457.94
2023-01-31T06:13:45.637Z,99458.19
2023-01-31T06:16:47.128Z,99464.81
2023-01-31T06:19:48.613Z,99459.72
2023-01-31T06:22:50.076Z,99467.34
2023-01-31T06:25:52.102Z,99468.50
2023-01-31T06:28:53.580Z,99462.88
2023-01-31T06:31:55.068Z,99452.72
2023-01-31T06:34:56.621Z,99452.28
2023-01-31T06:37:58.221Z,99462.84
2023-01-31T06:40:59.780Z,99477.00
2023-01-31T06:44:01.452Z,99466.69
2023-01-31T06:47:02.929Z,99468.47
2023-01-31T06:50:04.659Z,99478.38
2023-01-31T06:53:06.105Z,99476.59
2023-01-31T06:56:08.050Z,99471.09
2023-01-31T06:59:09.607Z,99486.47
2023-01-31T07:02:11.364Z,99484.75
2023-01-31T07:05:12.895Z,99480.28
2023-01-31T07:08:14.633Z,99475.34
2023-01-31T07:11:16.224Z,99479.63
2023-01-31T07:14:17.706Z,99476.53
2023-01-31T07:17:21.037Z,99479.97
2023-01-31T07:20:22.521Z,99481.91
2023-01-31T07:23:24.043Z,99484.25
2023-01-31T07:26:25.580Z,99475.13
2023-01-31T07:29:27.050Z,99473.34
2023-01-31T07:32:30.243Z,99473.63
2023-01-31T07:35:32.216Z,99473.31
2023-01-31T07:38:34.317Z,99471.63
2023-01-31T07:41:36.220Z,99470.72
2023-01-31T07:44:37.694Z,99479.00
2023-01-31T07:47:39.243Z,99479.69
2023-01-31T07:50:40.800Z,99479.78
2023-01-31T07:53:43.027Z,99478.44
2023-01-31T07:56:44.511Z,99472.97
2023-01-31T07:59:46.060Z,99484.53
2023-01-31T08:03:05.796Z,99491.41
2023-01-31T08:06:09.066Z,99496.50
2023-01-31T08:09:10.726Z,99492.53
2023-01-31T08:12:12.433Z,99488.41
2023-01-31T08:15:13.886Z,99481.09
2023-01-31T08:18:15.347Z,99481.50
2023-01-31T08:21:16.943Z,99472.69
2023-01-31T08:24:18.398Z,99481.03
2023-01-31T08:27:19.954Z,99481.66
2023-01-31T08:30:21.559Z,99478.00
2023-01-31T08:33:23.488Z,99473.22
2023-01-31T08:36:26.459Z,99476.94
2023-01-31T08:39:28.012Z,99485.69
2023-01-31T08:42:29.467Z,99477.41
2023-01-31T08:45:31.422Z,99477.47
2023-01-31T08:48:36.663Z,99474.53
2023-01-31T08:51:38.147Z,99482.19
2023-01-31T08:54:39.596Z,99480.44
2023-01-31T08:57:52.608Z,99480.63
2023-01-31T09:01:03.267Z,99491.75
2023-01-31T09:04:04.878Z,99497.78
2023-01-31T09:07:06.318Z,99515.88
2023-01-31T09:10:08.011Z,99525.38
2023-01-31T09:13:09.557Z,99551.50
2023-01-31T09:16:11.784Z,99592.38
2023-01-31T09:19:13.269Z,99636.41
2023-01-31T09:22:14.797Z,99655.63
2023-01-31T09:25:16.331Z,99653.69
2023-01-31T09:28:17.771Z,99654.91
2023-01-31T09:31:20.791Z,99664.75
2023-01-31T09:34:22.408Z,99657.81
2023-01-31T09:37:23.916Z,99659.00
2023-01-31T09:40:26.514Z,99669.84
2023-01-31T09:43:33.973Z,99664.94
2023-01-31T09:46:37.613Z,99670.19
2023-01-31T09:49:46.272Z,99681.72
2023-01-31T09:52:48.873Z,99682.28
2023-01-31T09:56:09.069Z,99674.09
2023-01-31T09:59:19.261Z,99682.81
2023-01-31T10:02:49.111Z,99670.19
2023-01-31T10:06:15.880Z,99670.28
2023-01-31T10:09:40.713Z,99668.94
2023-01-31T10:12:47.832Z,99678.50
2023-01-31T10:15:55.327Z,99680.66
2023-01-31T10:19:02.567Z,99674.41
2023-01-31T10:22:07.039Z,99682.69
2023-01-31T10:25:27.198Z,99685.88
2023-01-31T10:28:38.837Z,99686.41
2023-01-31T10:31:51.301Z,99692.97
2023-01-31T10:35:04.202Z,99687.75
2023-01-31T10:38:21.735Z,99682.50
2023-01-31T10:41:46.123Z,99672.91
2023-01-31T10:44:54.025Z,99683.31
2023-01-31T10:48:01.419Z,99680.09
2023-01-31T10:51:34.118Z,99677.59
2023-01-31T10:54:54.418Z,99676.03
2023-01-31T10:57:55.913Z,99679.63
2023-01-31T11:00:57.745Z,99674.91
2023-01-31T11:04:00.414Z,99674.47
2023-01-31T11:07:01.792Z,99668.97
2023-01-31T11:10:20.391Z,99662.44
2023-01-31T11:13:23.146Z,99661.69
2023-01-31T11:16:24.832Z,99667.44
2023-01-31T11:19:35.944Z,99656.97
2023-01-31T11:22:37.944Z,99658.53
2023-01-31T11:25:39.404Z,99648.81
2023-01-31T11:28:41.084Z,99639.63
2023-01-31T11:31:43.098Z,99633.97
2023-01-31T11:35:04.711Z,99626.22
2023-01-31T11:38:12.187Z,99614.28
2023-01-31T11:41:34.594Z,99601.97
2023-01-31T11:44:36.092Z,99608.69
2023-01-31T11:47:48.947Z,99609.06
2023-01-31T11:51:16.585Z,99616.63
2023-01-31T11:54:20.386Z,99608.69
2023-01-31T11:57:26.820Z,99602.81
2023-01-31T12:00:31.138Z,99594.81
2023-01-31T12:03:32.693Z,99602.16
2023-01-31T12:06:35.731Z,99596.81
2023-01-31T12:09:42.750Z,99602.75
2023-01-31T12:12:45.406Z,99580.56
2023-01-31T12:15:51.386Z,99582.31
2023-01-31T12:19:11.221Z,99581.81
2023-01-31T12:22:18.055Z,99554.00
2023-01-31T12:25:28.229Z,99558.00
2023-01-31T12:28:47.962Z,99543.13
2023-01-31T12:32:03.546Z,99557.31
2023-01-31T12:35:10.389Z,99558.47
2023-01-31T12:38:26.962Z,99557.63
2023-01-31T12:41:33.361Z,99549.75
2023-01-31T12:44:43.988Z,99551.09
2023-01-31T12:48:03.649Z,99567.19
2023-01-31T12:51:51.833Z,99551.84
2023-01-31T12:55:13.604Z,99558.88
2023-01-31T12:58:34.682Z,99556.56
2023-01-31T13:02:07.627Z,99555.44
2023-01-31T13:05:27.747Z,99551.25
2023-01-31T13:08:33.345Z,99540.28
2023-01-31T13:11:44.315Z,99536.47
2023-01-31T13:15:04.143Z,99524.63
2023-01-31T13:18:05.834Z,99517.47
2023-01-31T13:21:08.386Z,99504.56
2023-01-31T13:24:13.648Z,99497.84
2023-01-31T13:27:38.191Z,99499.94
2023-01-31T13:30:43.257Z,99477.09
2023-01-31T13:33:54.602Z,99473.97
2023-01-31T13:37:01.604Z,99466.66
2023-01-31T13:40:24.424Z,99464.97
2023-01-31T13:43:25.920Z,99462.66
2023-01-31T13:46:39.166Z,99455.03
2023-01-31T13:49:50.402Z,99469.59
2023-01-31T13:52:53.000Z,99470.63
2023-01-31T13:55:54.368Z,99454.81
2023-01-31T13:58:56.092Z,99465.44
2023-01-31T14:01:59.423Z,99465.63
2023-01-31T14:05:28.246Z,99450.88
2023-01-31T14:08:49.845Z,99437.09
2023-01-31T14:11:51.372Z,99443.13
2023-01-31T14:14:53.776Z,99437.00
2023-01-31T14:17:55.070Z,99438.91
2023-01-31T14:20:56.559Z,99437.69
2023-01-31T14:23:59.077Z,99431.19
2023-01-31T14:27:00.645Z,99439.88
2023-01-31T14:30:05.498Z,99443.28
2023-01-31T14:33:11.310Z,99447.84
2023-01-31T14:36:21.799Z,99456.13
2023-01-31T14:39:49.677Z,99439.28
2023-01-31T14:43:04.025Z,99441.41
2023-01-31T14:46:30.201Z,99460.09
2023-01-31T14:49:48.849Z,99448.78
2023-01-31T14:52:59.831Z,99428.63
2023-01-31T14:56:17.615Z,99426.94
2023-01-31T14:59:44.690Z,99426.66
2023-01-31T15:02:54.150Z,99428.59
2023-01-31T15:05:57.018Z,99423.47
2023-01-31T15:09:24.467Z,99434.22
2023-01-31T15:12:59.932Z,99426.44
2023-01-31T15:16:16.522Z,99424.22
2023-01-31T15:19:21.352Z,99433.31
2023-01-31T15:22:22.857Z,99422.03
2023-01-31T15:25:39.575Z,99406.22
2023-01-31T15:28:42.039Z,99388.09
2023-01-31T15:31:44.857Z,99397.75
2023-01-31T15:34:56.094Z,99404.59
2023-01-31T15:38:20.567Z,99434.13
2023-01-31T15:41:23.166Z,99446.69
2023-01-31T15:44:25.149Z,99420.97
2023-01-31T15:47:26.606Z,99433.03
2023-01-31T15:50:32.431Z,99434.22
2023-01-31T15:53:33.963Z,99431.91
2023-01-31T15:56:37.625Z,99432.47
2023-01-31T15:59:39.250Z,99436.81
2023-01-31T16:02:41.443Z,99454.59
2023-01-31T16:05:43.135Z,99453.00
2023-01-31T16:08:44.590Z,99464.09
2023-01-31T16:11:46.188Z,99478.53
2023-01-31T16:14:48.186Z,99477.06
2023-01-31T16:17:49.828Z,99473.34
2023-01-31T16:20:52.721Z,99476.72
2023-01-31T16:24:14.760Z,99492.63
2023-01-31T16:27:16.620Z,99483.38
2023-01-31T16:30:18.866Z,99488.69
2023-01-31T16:33:23.651Z,99501.22
2023-01-31T16:36:27.796Z,99492.53
2023-01-31T16:39:33.958Z,99491.28
2023-01-31T16:42:35.969Z,99494.88
2023-01-31T16:45:37.425Z,99493.09
2023-01-31T16:48:40.207Z,99492.16
2023-01-31T16:51:42.761Z,99486.22
2023-01-31T16:54:51.300Z,99478.91
2023-01-31T16:57:53.838Z,99491.06
2023-01-31T17:00:56.923Z,99488.00
2023-01-31T17:04:06.447Z,99481.84
2023-01-31T17:07:19.169Z,99495.09
2023-01-31T17:10:27.202Z,99492.34
2023-01-31T17:13:28.667Z,99485.81
2023-01-31T17:16:30.137Z,99495.66
2023-01-31T17:19:31.579Z,99501.53
2023-01-31T17:22:33.027Z,99505.53
2023-01-31T17:25:36.484Z,99513.31
2023-01-31T17:28:38.044Z,99504.53
2023-01-31T17:31:39.624Z,99505.13
2023-01-31T17:34:41.307Z,99500.53
2023-01-31T17:37:42.746Z,99499.56
2023-01-31T17:40:44.268Z,99497.78
2023-01-31T17:43:45.714Z,99508.34
2023-01-31T17:46:47.175Z,99510.16
2023-01-31T17:49:48.657Z,99497.50
2023-01-31T17:52:50.307Z,99499.38
2023-01-31T17:55:51.854Z,99492.69
2023-01-31T17:58:53.310Z,99503.03
2023-01-31T18:01:55.083Z,99497.28
2023-01-31T18:04:56.684Z,99492.34
2023-01-31T18:07:59.084Z,99478.47
2023-01-31T18:11:08.274Z,99490.09
2023-01-31T18:14:10.695Z,99490.72
2023-01-31T18:17:12.177Z,99477.84
2023-01-31T18:20:13.635Z,99465.91
2023-01-31T18:23:15.085Z,99475.25
2023-01-31T18:26:17.733Z,99469.06
2023-01-31T18:29:25.266Z,99470.97
2023-01-31T18:32:26.719Z,99460.72
2023-01-31T18:35:28.249Z,99452.56
2023-01-31T18:38:29.919Z,99452.78
2023-01-31T18:41:31.370Z,99448.50
2023-01-31T18:44:32.866Z,99447.59
2023-01-31T18:47:34.344Z,99443.47
2023-01-31T18:50:36.825Z,99442.63
2023-01-31T18:53:39.781Z,99435.50
2023-01-31T18:56:41.554Z,99434.47
2023-01-31T18:59:43.088Z,99431.25
2023-01-31T19:02:49.745Z,99438.94
2023-01-31T19:05:51.253Z,99443.19
2023-01-31T19:08:53.669Z,99437.44
2023-01-31T19:11:55.121Z,99437.94
2023-01-31T19:14:56.632Z,99434.38
2023-01-31T19:17:58.066Z,99436.25
2023-01-31T19:20:59.610Z,99436.91
2023-01-31T19:24:02.554Z,99437.81
2023-01-31T19:27:04.081Z,99437.88
2023-01-31T19:30:06.173Z,99432.38
2023-01-31T19:33:08.135Z,99423.34
2023-01-31T19:36:10.329Z,99424.69
2023-01-31T19:39:12.127Z,99409.94
2023-01-31T19:42:13.592Z,99400.59
2023-01-31T19:45:19.843Z,99392.03
2023-01-31T19:48:24.350Z,99397.25
2023-01-31T19:51:25.849Z,99404.41
2023-01-31T19:54:28.100Z,99417.25
2023-01-31T19:57:29.820Z,99415.72
2023-01-31T20:00:31.451Z,99410.66
2023-01-31T20:03:32.917Z,99405.50
2023-01-31T20:06:34.434Z,99410.66
2023-01-31T20:09:35.888Z,99405.66
2023-01-31T20:12:37.397Z,99406.47
2023-01-31T20:15:38.883Z,99392.53
2023-01-31T20:18:40.647Z,99400.28
2023-01-31T20:21:42.138Z,99398.13
2023-01-31T20:24:43.596Z,99391.13
2023-01-31T20:27:45.070Z,99396.69
2023-01-31T20:30:46.708Z,99393.25
2023-01-31T20:33:49.886Z,99387.72
2023-01-31T20:36:51.327Z,99392.44
2023-01-31T20:39:52.839Z,99399.16
2023-01-31T20:42:54.331Z,99399.63
2023-01-31T20:46:03.404Z,99393.25
2023-01-31T20:49:04.906Z,99398.41
2023-01-31T20:52:06.348Z,99393.22
2023-01-31T20:55:08.238Z,99390.84
2023-01-31T20:58:09.693Z,99392.13
2023-01-31T21:01:11.480Z,99388.63
2023-01-31T21:04:14.030Z,99392.84
2023-01-31T21:07:15.537Z,99379.13
2023-01-31T21:10:17.410Z,99379.50
2023-01-31T21:13:19.244Z,99371.41
2023-01-31T21:16:20.729Z,99376.03
2023-01-31T21:19:22.194Z,99378.22
2023-01-31T21:22:23.681Z,99396.84
2023-01-31T21:25:25.148Z,99394.28
2023-01-31T21:28:26.803Z,99380.91
2023-01-31T21:31:29.278Z,99377.97
2023-01-31T21:34:30.868Z,99371.56
2023-01-31T21:37:32.400Z,99361.16
2023-01-31T21:40:33.876Z,99347.91
2023-01-31T21:43:36.105Z,99334.16
2023-01-31T21:46:37.841Z,99328.97
2023-01-31T21:49:39.334Z,99307.06
2023-01-31T21:52:40.778Z,99302.16
2023-01-31T21:55:42.273Z,99292.84
2023-01-31T21:58:44.452Z,99287.47
2023-01-31T22:01:45.946Z,99274.28
2023-01-31T22:04:47.438Z,99272.03
2023-01-31T22:07:48.937Z,99270.25
2023-01-31T22:10:50.386Z,99269.75
2023-01-31T22:13:55.552Z,99267.19
2023-01-31T22:16:57.514Z,99269.59
2023-01-31T22:19:59.158Z,99275.66
2023-01-31T22:23:00.598Z,99274.44
2023-01-31T22:26:10.319Z,99275.06
2023-01-31T22:29:13.387Z,99277.91
2023-01-31T22:32:14.847Z,99285.47
2023-01-31T22:35:16.360Z,99278.50
2023-01-31T22:38:18.765Z,99279.47
2023-01-31T22:41:20.476Z,99275.16
2023-01-31T22:44:22.012Z,99281.97
2023-01-31T22:47:24.156Z,99279.50
2023-01-31T22:50:25.878Z,99277.78
2023-01-31T22:53:28.747Z,99281.75
2023-01-31T22:56:31.273Z,99270.44
2023-01-31T22:59:32.713Z,99271.72
2023-01-31T23:02:34.175Z,99268.22
2023-01-31T23:05:39.197Z,99259.34
2023-01-31T23:08:40.719Z,99254.59
2023-01-31T23:11:42.198Z,99251.44
2023-01-31T23:14:43.759Z,99256.16
2023-01-31T23:17:45.508Z,99254.50
2023-01-31T23:20:46.956Z,99251.06
2023-01-31T23:23:48.453Z,99253.09
2023-01-31T23:26:50.051Z,99257.44
2023-01-31T23:29:51.519Z,99252.41
2023-01-31T23:32:53.220Z,99249.66
2023-01-31T23:35:54.727Z,99242.06
2023-01-31T23:38:56.229Z,99236.06
2023-01-31T23:41:57.731Z,99229.72
2023-01-31T23:44:59.205Z,99224.09
2023-01-31T23:48:00.682Z,99238.69
2023-01-31T23:51:03.622Z,99239.03
2023-01-31T23:54:05.091Z,99232.78
2023-01-31T23:57:06.577Z,99220.44
